Time;durP1;ratioP1;P1;durP2;ratioP2;P2;SDS_P1;SDS_P2;PMS_P1;PMS_P2;Temp;Humidity;BMP_temperature;BMP_pressure;BME280_temperature;BME280_humidity;BME280_pressure;Samples;Min_cycle;Max_cycle;Signal;HPM_P1;HPM_P2
2023/01/31 01:23:46;;;;;;;4.75;1.60;;;;;;;16.85;51.26;102365.63;5104650;24;20425;-86
2023/01/31 01:26:26;;;;;;;3.35;1.25;;;;;;;16.84;50.77;102366.44;4848721;29;20045;-86
2023/01/31 01:28:53;;;;;;;4.57;1.73;;;;;;;16.84;51.07;102366.44;4841180;29;20033;-84
2023/01/31 01:31:19;;;;;;;3.58;1.45;;;;;;;16.85;51.32;102367.31;4848345;29;20113;-85
2023/01/31 01:33:47;;;;;;;4.28;1.60;;;;;;;16.86;51.15;102362.16;4848363;29;20393;-86
2023/01/31 01:36:16;;;;;;;3.92;1.55;;;;;;;16.84;50.96;102369.06;4848226;29;20052;-85
2023/01/31 01:38:42;;;;;;;2.72;1.20;;;;;;;16.83;51.23;102374.22;4848269;29;20526;-86
2023/01/31 01:41:09;;;;;;;4.38;1.50;;;;;;;16.83;51.09;102364.72;4832949;29;20503;-87
2023/01/31 01:43:45;;;;;;;5.07;1.60;;;;;;;16.85;51.09;102372.53;4848545;29;20518;-86
2023/01/31 01:46:16;;;;;;;4.57;1.55;;;;;;;16.85;51.40;102372.53;4848754;29;20041;-86
2023/01/31 01:48:45;;;;;;;4.18;1.70;;;;;;;16.84;51.13;102368.19;4848072;29;20037;-85
2023/01/31 01:51:14;;;;;;;6.07;1.90;;;;;;;16.83;50.74;102361.22;4848090;29;20452;-86
2023/01/31 01:53:43;;;;;;;4.68;1.90;;;;;;;16.83;51.11;102366.41;4848013;29;20370;-88
2023/01/31 01:56:25;;;;;;;4.22;1.65;;;;;;;16.84;51.13;102375.97;4832643;29;20045;-83
2023/01/31 01:59:02;;;;;;;4.13;1.50;;;;;;;16.84;51.17;102375.97;4847505;29;20515;-82
2023/01/31 02:01:32;;;;;;;4.10;1.65;;;;;;;16.85;51.29;102372.53;4847494;29;20102;-82
2023/01/31 02:03:57;;;;;;;5.32;1.50;;;;;;;16.83;51.20;102379.41;4864568;29;20037;-85
2023/01/31 02:06:23;;;;;;;3.72;1.58;;;;;;;16.83;51.14;102382.91;4817790;29;20101;-85
2023/01/31 02:08:49;;;;;;;4.32;1.80;;;;;;;16.83;51.50;102380.31;4832832;29;20066;-84
2023/01/31 02:11:27;;;;;;;5.22;1.77;;;;;;;16.83;51.04;102379.41;4832925;29;20042;-86
2023/01/31 02:13:58;;;;;;;5.20;1.65;;;;;;;16.84;51.21;102376.84;4847781;29;20042;-87
2023/01/31 02:16:24;;;;;;;3.72;1.67;;;;;;;16.83;51.19;102367.31;4864470;29;20045;-85
2023/01/31 02:18:50;;;;;;;3.97;1.60;;;;;;;16.84;51.30;102360.38;4832736;29;20042;-86
2023/01/31 02:21:34;;;;;;;4.68;1.63;;;;;;;16.83;51.06;102361.22;4847545;29;20037;-86
2023/01/31 02:24:27;;;;;;;4.05;1.38;;;;;;;16.82;51.10;102357.75;4862706;29;20087;-86
2023/01/31 02:27:17;;;;;;;4.90;1.50;;;;;;;16.82;51.17;102362.94;4866223;29;20041;-87
2023/01/31 02:30:10;;;;;;;4.88;2.10;;;;;;;16.83;51.06;102359.50;4866168;29;20258;-85
2023/01/31 02:33:02;;;;;;;3.53;1.47;;;;;;;16.82;51.32;102352.53;4865763;29;20029;-84
2023/01/31 02:35:48;;;;;;;4.35;1.58;;;;;;;16.84;51.13;102349.97;4865900;29;20047;-85
2023/01/31 02:38:38;;;;;;;5.18;1.60;;;;;;;16.83;51.22;102351.72;4837897;29;20092;-86
2023/01/31 02:41:28;;;;;;;5.88;1.73;;;;;;;16.84;51.26;102349.97;4865769;29;20043;-86
2023/01/31 02:47:09;;;;;;;6.03;1.60;;;;;;;16.82;51.32;102342.16;4882646;29;20044;-86
2023/01/31 02:49:49;;;;;;;3.30;1.33;;;;;;;16.81;51.15;102350.81;4868640;29;20036;-86
2023/01/31 02:52:38;;;;;;;4.38;1.55;;;;;;;16.83;51.10;102350.81;4882375;29;20056;-85
2023/01/31 02:58:07;;;;;;;3.50;1.48;;;;;;;16.81;51.46;102350.81;4898059;29;20047;-88
2023/01/31 03:00:36;;;;;;;3.65;1.70;;;;;;;16.80;51.63;102341.25;4869004;29;20040;-88
2023/01/31 03:03:07;;;;;;;4.57;1.50;;;;;;;16.80;51.36;102333.44;4867033;29;20101;-88
2023/01/31 03:05:33;;;;;;;4.78;1.70;;;;;;;16.81;51.33;102334.31;4866959;29;20045;-89
2023/01/31 03:08:01;;;;;;;3.72;1.58;;;;;;;16.81;51.09;102321.31;4835756;29;20124;-89
2023/01/31 03:10:33;;;;;;;6.25;1.42;;;;;;;16.81;51.11;102326.50;4866036;29;20045;-87
2023/01/31 03:13:14;;;;;;;4.40;1.48;;;;;;;16.80;51.07;102330.84;4866472;29;20033;-89
2023/01/31 03:18:54;;;;;;;3.88;1.67;;;;;;;16.79;51.25;102320.41;4863063;29;20029;-89
2023/01/31 03:21:26;;;;;;;3.97;1.63;;;;;;;16.79;51.16;102318.66;4865968;29;20057;-89
2023/01/31 03:23:55;;;;;;;4.17;1.60;;;;;;;16.78;51.08;102313.44;4882638;29;20048;-89
2023/01/31 03:26:22;;;;;;;5.82;1.77;;;;;;;16.78;51.11;102314.31;4882720;29;20029;-88
2023/01/31 03:28:53;;;;;;;3.90;1.50;;;;;;;16.79;51.08;102317.81;4835307;29;20044;-88
2023/01/31 03:31:25;;;;;;;3.97;1.55;;;;;;;16.77;51.24;102309.09;4836515;29;20041;-88
2023/01/31 03:33:56;;;;;;;5.10;1.70;;;;;;;16.78;51.26;102308.25;4865548;29;20033;-88
2023/01/31 03:36:45;;;;;;;4.82;1.77;;;;;;;16.77;51.23;102309.09;4865458;29;20037;-85
2023/01/31 03:39:45;;;;;;;4.07;1.48;;;;;;;16.76;51.13;102304.75;4865156;29;20037;-86
2023/01/31 03:42:12;;;;;;;3.42;1.50;;;;;;;16.76;51.27;102299.53;4864965;29;20036;-87
2023/01/31 03:45:16;;;;;;;3.85;1.52;;;;;;;16.76;51.13;102281.34;4864664;29;20369;-86
2023/01/31 03:47:45;;;;;;;3.65;1.50;;;;;;;16.76;51.23;102282.22;4864908;29;20029;-87
2023/01/31 03:50:24;;;;;;;4.95;1.80;;;;;;;16.75;51.25;102277.88;4864734;29;20089;-86
2023/01/31 03:52:59;;;;;;;4.20;1.50;;;;;;;16.75;51.12;102275.28;4864988;29;20112;-83
2023/01/31 03:55:32;;;;;;;3.67;1.50;;;;;;;16.75;50.89;102277.00;4864811;29;20487;-88
2023/01/31 03:57:59;;;;;;;;;;;;;;;16.76;51.08;102277.00;4865277;29;20083;-86
2023/01/31 04:00:26;;;;;;;4.22;1.60;;;;;;;16.75;51.12;102275.28;4881512;29;19975;-85
2023/01/31 04:03:27;;;;;;;4.82;1.73;;;;;;;16.74;51.21;102278.72;4849719;29;20033;-87
2023/01/31 04:05:53;;;;;;;5.00;1.95;;;;;;;16.74;51.36;102278.72;4858961;29;20091;-86
2023/01/31 04:08:19;;;;;;;3.88;1.58;;;;;;;16.74;51.26;102270.91;4834622;29;20495;-87
2023/01/31 04:10:45;;;;;;;4.05;1.67;;;;;;;16.73;51.06;102274.38;4834604;29;20051;-88
2023/01/31 04:13:10;;;;;;;5.55;1.65;;;;;;;16.74;51.07;102270.91;4864821;29;20037;-88
2023/01/31 04:15:36;;;;;;;5.38;1.90;;;;;;;16.74;51.34;102277.84;4834284;29;20069;-85
2023/01/31 04:18:01;;;;;;;5.10;1.80;;;;;;;16.74;51.26;102264.84;4849313;29;20041;-85
2023/01/31 04:20:27;;;;;;;3.75;1.48;;;;;;;16.72;51.20;102270.00;4864571;29;20116;-85
2023/01/31 04:22:52;;;;;;;3.50;1.70;;;;;;;16.74;51.26;102262.25;4837750;29;20065;-85
2023/01/31 04:25:17;;;;;;;4.50;1.60;;;;;;;16.74;51.22;102263.09;4853114;29;20076;-87
2023/01/31 04:27:43;;;;;;;4.07;1.60;;;;;;;16.73;51.31;102268.31;4837784;29;20043;-85
2023/01/31 04:30:09;;;;;;;4.82;2.00;;;;;;;16.73;51.05;102265.69;4837534;29;20033;-85
2023/01/31 04:32:34;;;;;;;4.50;1.75;;;;;;;16.72;51.14;102263.94;4852501;29;20548;-87
2023/01/31 04:35:00;;;;;;;4.97;1.67;;;;;;;16.73;51.04;102263.09;4869553;29;20045;-84
2023/01/31 04:37:25;;;;;;;5.70;1.90;;;;;;;16.74;51.22;102262.25;4854252;29;20061;-87
2023/01/31 04:39:50;;;;;;;6.00;1.92;;;;;;;16.73;51.11;102257.91;4845089;29;20045;-87
2023/01/31 04:42:16;;;;;;;2.78;1.40;;;;;;;16.72;51.29;102250.94;4837457;29;20037;-87
2023/01/31 04:44:41;;;;;;;4.40;1.80;;;;;;;16.73;51.26;102250.09;4837306;29;20037;-86
2023/01/31 04:47:07;;;;;;;4.78;1.67;;;;;;;16.72;51.17;102250.94;4852963;29;20040;-86
2023/01/31 04:49:32;;;;;;;4.38;1.60;;;;;;;16.73;51.19;102244.91;4837333;29;20045;-86
2023/01/31 04:51:57;;;;;;;4.55;1.70;;;;;;;16.72;51.14;102243.13;4833996;29;20053;-85
2023/01/31 04:54:23;;;;;;;5.18;1.92;;;;;;;16.71;51.30;102244.88;4833523;29;20041;-84
2023/01/31 04:56:48;;;;;;;4.25;1.67;;;;;;;16.71;51.15;102250.06;4836759;29;20074;-84
2023/01/31 04:59:14;;;;;;;3.90;1.63;;;;;;;16.71;51.18;102241.41;4852384;29;20044;-83
2023/01/31 05:01:40;;;;;;;4.93;1.83;;;;;;;16.71;51.37;102226.69;4836596;29;20041;-86
2023/01/31 05:04:06;;;;;;;5.63;1.70;;;;;;;16.72;51.08;102219.75;4852352;29;20037;-84
2023/01/31 05:06:32;;;;;;;4.60;1.73;;;;;;;16.71;51.13;102216.28;4852438;29;20037;-84
2023/01/31 05:09:00;;;;;;;3.78;1.60;;;;;;;16.70;51.21;102213.66;4851998;29;20072;-83
2023/01/31 05:11:26;;;;;;;5.22;1.70;;;;;;;16.72;51.17;102223.22;4837366;29;20041;-86
2023/01/31 05:13:52;;;;;;;5.15;1.80;;;;;;;16.72;51.05;102218.00;4851760;29;20041;-85
2023/01/31 05:16:17;;;;;;;4.13;1.65;;;;;;;16.73;51.01;102224.13;4851916;29;20041;-85
2023/01/31 05:18:43;;;;;;;5.10;1.70;;;;;;;16.72;51.00;102223.22;4836314;29;20037;-86
2023/01/31 05:21:09;;;;;;;3.53;1.48;;;;;;;16.72;51.06;102224.94;4851760;29;20069;-85
2023/01/31 05:23:35;;;;;;;3.67;1.50;;;;;;;16.73;51.20;102226.72;4851836;29;20515;-86
2023/01/31 05:26:00;;;;;;;5.32;1.70;;;;;;;16.73;51.20;102226.72;4852405;29;20053;-85
2023/01/31 05:28:26;;;;;;;5.00;1.75;;;;;;;16.73;51.20;102227.56;4852351;29;20156;-86
2023/01/31 05:30:52;;;;;;;4.05;1.90;;;;;;;16.74;51.10;102225.84;4867011;29;20083;-86
2023/01/31 05:33:19;;;;;;;4.40;1.60;;;;;;;16.75;51.24;102225.00;4866402;29;20037;-86
2023/01/31 05:35:46;;;;;;;3.63;1.70;;;;;;;16.75;51.04;102217.22;4857483;29;20056;-86
2023/01/31 05:38:11;;;;;;;3.25;1.50;;;;;;;16.73;51.22;102214.59;4880718;29;20041;-87
2023/01/31 05:40:36;;;;;;;3.88;1.52;;;;;;;16.76;51.23;102213.75;4865219;29;20037;-85
2023/01/31 05:43:02;;;;;;;3.85;1.60;;;;;;;16.76;51.08;102218.94;4866323;29;20033;-86
2023/01/31 05:45:30;;;;;;;2.97;1.50;;;;;;;16.76;51.18;102208.56;4858529;29;20056;-86
2023/01/31 05:47:56;;;;;;;3.40;1.38;;;;;;;16.75;51.11;102197.28;4852576;29;20060;-87
2023/01/31 05:50:21;;;;;;;5.20;1.48;;;;;;;16.75;51.35;102201.63;4868058;29;20037;-87
2023/01/31 05:52:55;;;;;;;3.80;1.23;;;;;;;16.75;51.03;102196.41;4852494;29;20049;-87
2023/01/31 05:55:21;;;;;;;3.97;1.52;;;;;;;16.75;51.16;102201.63;4867800;29;20029;-86
2023/01/31 05:57:46;;;;;;;5.78;1.80;;;;;;;16.76;51.20;102203.34;4867335;29;20507;-87
2023/01/31 06:00:13;;;;;;;4.13;1.40;;;;;;;16.74;51.15;102200.72;4854073;29;20041;-84
2023/01/31 06:02:40;;;;;;;4.35;1.50;;;;;;;16.76;51.00;102211.16;4869126;29;20033;-89
2023/01/31 06:05:07;;;;;;;4.03;1.67;;;;;;;16.76;50.97;102204.22;4855908;29;20037;-91
2023/01/31 06:07:32;;;;;;;4.93;2.17;;;;;;;16.78;51.22;102207.72;4868227;29;20048;-87
2023/01/31 06:09:58;;;;;;;3.95;1.80;;;;;;;16.78;51.18;102206.84;4851588;29;20036;-90
2023/01/31 06:12:23;;;;;;;4.40;1.85;;;;;;;16.79;51.37;102204.28;4851161;29;20048;-83
2023/01/31 06:14:49;;;;;;;4.47;1.90;;;;;;;16.79;51.29;102201.69;4850307;29;20044;-76
2023/01/31 06:17:15;;;;;;;5.13;2.00;;;;;;;16.79;51.27;102195.63;4850387;29;20041;-80
2023/01/31 06:19:40;;;;;;;4.53;2.00;;;;;;;16.79;51.31;102193.88;4865386;29;20083;-82
2023/01/31 06:22:06;;;;;;;4.28;1.70;;;;;;;16.80;51.33;102177.44;4847299;29;20045;-84
2023/01/31 06:24:32;;;;;;;4.15;1.70;;;;;;;16.79;51.40;102177.41;4848431;29;20059;-85
2023/01/31 06:26:57;;;;;;;5.45;2.17;;;;;;;16.79;51.17;102159.22;4850577;29;20060;-86
2023/01/31 06:29:23;;;;;;;5.53;2.00;;;;;;;16.81;51.74;102167.94;4850843;29;20424;-85
2023/01/31 06:31:48;;;;;;;5.82;2.00;;;;;;;16.80;51.46;102161.00;4850472;29;20085;-85
2023/01/31 06:34:14;;;;;;;4.60;1.73;;;;;;;16.80;51.49;102161.84;4835651;29;20081;-83
2023/01/31 06:36:39;;;;;;;5.15;1.60;;;;;;;16.80;51.45;102148.00;4850148;29;20041;-83
2023/01/31 06:39:05;;;;;;;4.55;1.67;;;;;;;16.81;51.53;102157.53;4850555;29;20132;-85
2023/01/31 06:41:30;;;;;;;5.43;1.73;;;;;;;16.81;51.56;102152.31;4850493;29;20040;-83
2023/01/31 06:43:56;;;;;;;5.00;1.75;;;;;;;16.79;51.57;102149.69;4849782;29;20041;-83
2023/01/31 06:46:21;;;;;;;4.43;1.60;;;;;;;16.81;51.62;102145.44;4881558;29;20040;-80
2023/01/31 06:48:47;;;;;;;3.67;1.75;;;;;;;16.81;51.40;102150.63;4851480;29;20082;-93
2023/01/31 06:51:13;;;;;;;5.65;1.73;;;;;;;16.81;51.59;102142.81;4837583;29;20140;-92
2023/01/31 06:53:39;;;;;;;6.43;1.90;;;;;;;16.81;51.47;102145.44;4837478;29;20188;-92
2023/01/31 06:56:05;;;;;;;4.45;1.80;;;;;;;16.82;51.64;102147.16;4852523;29;20041;-92
2023/01/31 06:58:32;;;;;;;4.05;1.75;;;;;;;16.81;51.47;102142.81;4837320;29;20033;-93
2023/01/31 07:01:03;;;;;;;5.15;1.80;;;;;;;16.82;51.52;102143.69;4836717;29;20058;-85
2023/01/31 07:03:29;;;;;;;4.50;1.70;;;;;;;16.83;51.55;102137.63;4865978;29;20064;-84
2023/01/31 07:05:54;;;;;;;4.53;2.13;;;;;;;16.82;51.78;102136.75;4850520;29;20100;-89
2023/01/31 07:08:20;;;;;;;6.50;2.83;;;;;;;16.81;51.82;102137.63;4836395;29;20079;-88
2023/01/31 07:10:47;;;;;;;8.45;2.97;;;;;;;16.83;51.93;102135.03;4836538;29;20044;-88
2023/01/31 07:13:13;;;;;;;9.20;3.20;;;;;;;16.82;51.88;102118.56;4866397;29;20453;-86
2023/01/31 07:15:39;;;;;;;11.90;3.00;;;;;;;16.83;52.00;102122.03;4836149;29;20046;-88
2023/01/31 07:18:05;;;;;;;9.30;3.13;;;;;;;16.82;51.80;102123.75;4851035;29;20404;-88
2023/01/31 07:20:30;;;;;;;6.20;2.78;;;;;;;16.83;51.69;102128.13;4866716;29;20045;-89
2023/01/31 07:22:56;;;;;;;9.75;2.70;;;;;;;16.83;51.78;102129.81;4835466;29;20530;-89
2023/01/31 07:25:22;;;;;;;5.95;3.03;;;;;;;16.84;51.83;102139.38;4869501;29;20037;-84
2023/01/31 07:27:47;;;;;;;9.75;3.20;;;;;;;16.84;52.01;102129.84;4852830;29;20037;-87
2023/01/31 07:30:13;;;;;;;6.97;3.00;;;;;;;16.84;51.68;102119.47;4866526;29;20096;-88
2023/01/31 07:32:38;;;;;;;11.18;3.17;;;;;;;16.85;51.68;102116.03;4835736;29;20048;-89
2023/01/31 07:35:07;;;;;;;7.35;2.97;;;;;;;16.83;51.68;102107.31;4850400;29;20045;-88
2023/01/31 07:37:33;;;;;;;7.43;2.63;;;;;;;16.85;51.76;102105.63;4836243;29;20049;-89
2023/01/31 07:39:58;;;;;;;6.43;2.60;;;;;;;16.85;51.65;102096.91;4865828;29;20543;-88
2023/01/31 07:42:24;;;;;;;7.13;2.58;;;;;;;16.85;51.51;102094.31;4835243;29;20069;-88
2023/01/31 07:44:49;;;;;;;7.15;2.33;;;;;;;16.86;51.56;102090.88;4835937;29;20036;-88
2023/01/31 07:47:15;;;;;;;4.93;2.00;;;;;;;16.84;51.62;102103.00;4850308;29;20400;-90
2023/01/31 07:49:40;;;;;;;7.25;2.55;;;;;;;16.85;51.60;102107.31;4835865;29;20564;-91
2023/01/31 07:52:06;;;;;;;8.40;2.50;;;;;;;16.84;51.55;102106.47;4835865;29;20088;-89
2023/01/31 07:54:31;;;;;;;4.85;2.35;;;;;;;16.86;51.75;102102.16;4836598;29;20070;-89
2023/01/31 07:56:57;;;;;;;7.05;2.35;;;;;;;16.85;51.96;102092.63;4850524;29;20055;-83
2023/01/31 07:59:22;;;;;;;5.63;2.45;;;;;;;16.85;51.63;102074.41;4850716;29;20508;-88
2023/01/31 08:04:33;;;;;;;5.90;2.17;;;;;;;16.85;51.74;102089.13;4867957;29;20104;-86
2023/01/31 08:07:01;;;;;;;4.75;2.08;;;;;;;16.86;51.70;102083.94;4850815;29;20040;-84
2023/01/31 08:09:31;;;;;;;6.18;2.22;;;;;;;16.88;51.65;102072.72;4868262;29;20790;-91
2023/01/31 08:11:57;;;;;;;4.47;2.30;;;;;;;16.88;51.64;102067.53;4852163;29;20041;-92
2023/01/31 08:14:24;;;;;;;6.13;2.22;;;;;;;16.89;51.69;102061.44;4867530;29;20036;-90
2023/01/31 08:16:50;;;;;;;6.07;2.30;;;;;;;16.89;51.61;102071.84;4851383;29;20077;-90
2023/01/31 08:19:16;;;;;;;6.53;1.80;;;;;;;16.91;51.70;102080.53;4867471;29;20113;-90
2023/01/31 08:21:41;;;;;;;5.30;1.98;;;;;;;16.91;51.64;102097.00;4843115;29;20053;-89
2023/01/31 08:24:07;;;;;;;4.90;2.15;;;;;;;16.91;51.70;102073.63;4865467;29;20065;-90
2023/01/31 08:26:33;;;;;;;4.32;2.00;;;;;;;16.92;51.64;102062.38;4864257;29;20049;-88
2023/01/31 08:28:59;;;;;;;5.93;2.25;;;;;;;16.94;51.70;102064.97;4851278;29;20056;-88
2023/01/31 08:31:25;;;;;;;6.45;2.00;;;;;;;16.97;51.39;102065.91;4874712;29;20072;-88
2023/01/31 08:33:52;;;;;;;3.95;2.00;;;;;;;16.98;51.55;102062.44;4870048;29;20093;-87
2023/01/31 08:36:20;;;;;;;5.90;2.20;;;;;;;17.00;51.36;102073.72;4838109;29;20061;-88
2023/01/31 08:38:46;;;;;;;4.03;1.70;;;;;;;17.01;51.46;102078.09;4867426;29;20500;-89
2023/01/31 08:41:12;;;;;;;4.38;2.08;;;;;;;17.01;51.71;102072.03;4866973;29;20128;-88
2023/01/31 08:43:38;;;;;;;4.65;1.98;;;;;;;17.02;51.76;102069.41;4851476;29;20064;-88
2023/01/31 08:46:04;;;;;;;6.63;1.73;;;;;;;17.02;51.51;102066.81;4866471;29;20095;-88
2023/01/31 08:48:34;;;;;;;5.53;2.00;;;;;;;17.02;51.54;102053.81;4850932;29;20049;-88
2023/01/31 08:51:01;;;;;;;4.10;1.70;;;;;;;17.04;51.54;102051.25;4871469;29;20037;-88
2023/01/31 08:53:26;;;;;;;4.72;1.80;;;;;;;17.05;51.64;102048.66;4851007;29;20071;-88
2023/01/31 08:55:57;;;;;;;4.75;2.00;;;;;;;17.07;51.36;102048.66;4850542;29;20137;-88
2023/01/31 08:58:23;;;;;;;5.47;2.03;;;;;;;17.09;51.40;102036.56;4867677;29;20145;-88
2023/01/31 09:00:48;;;;;;;4.25;1.45;;;;;;;17.12;51.37;102027.94;4869017;29;20100;-87
2023/01/31 09:03:17;;;;;;;4.25;1.70;;;;;;;17.12;51.20;102021.00;4852872;29;20064;-89
2023/01/31 09:05:43;;;;;;;4.32;1.90;;;;;;;17.13;51.53;102029.66;4850721;29;20052;-87
2023/01/31 09:08:08;;;;;;;4.55;1.83;;;;;;;17.13;51.35;102034.88;4851191;29;20045;-88
2023/01/31 09:10:34;;;;;;;3.22;1.70;;;;;;;17.11;51.38;102042.63;4837703;29;20408;-88
2023/01/31 09:13:00;;;;;;;3.58;1.67;;;;;;;17.12;51.16;102048.75;4853544;29;20041;-90
2023/01/31 09:15:28;;;;;;;4.15;1.90;;;;;;;17.12;51.39;102043.53;4853868;29;20045;-88
2023/01/31 09:17:53;;;;;;;4.13;1.75;;;;;;;17.12;51.16;102035.75;4868609;29;20041;-88
2023/01/31 09:20:19;;;;;;;3.60;1.80;;;;;;;17.12;51.23;102039.19;4870218;29;20122;-88
2023/01/31 09:22:44;;;;;;;4.03;1.45;;;;;;;17.12;51.10;102020.13;4854209;29;20029;-88
2023/01/31 09:25:10;;;;;;;4.30;1.80;;;;;;;17.14;51.33;102013.22;4852944;29;20477;-89
2023/01/31 09:27:37;;;;;;;5.35;1.60;;;;;;;17.17;51.30;102021.03;4868548;29;20055;-87
2023/01/31 09:30:07;;;;;;;4.82;1.65;;;;;;;17.18;51.17;102025.38;4868852;29;20068;-89
2023/01/31 09:32:33;;;;;;;3.90;1.77;;;;;;;17.19;51.04;102025.41;4870748;29;20132;-85
2023/01/31 09:34:58;;;;;;;4.43;1.67;;;;;;;17.20;51.14;102021.97;4855784;29;20108;-87
2023/01/31 09:37:24;;;;;;;3.67;1.40;;;;;;;17.20;51.20;102037.56;4837761;29;20470;-88
2023/01/31 09:39:49;;;;;;;4.60;1.63;;;;;;;17.20;51.22;102037.56;4852764;29;20044;-88
2023/01/31 09:42:30;;;;;;;3.70;1.80;;;;;;;17.19;51.39;102042.75;4853007;29;20064;-88
2023/01/31 09:45:13;;;;;;;4.95;1.80;;;;;;;17.17;51.33;102036.66;4868546;29;20045;-89
2023/01/31 09:47:47;;;;;;;3.35;1.45;;;;;;;17.16;51.38;102041.00;4867894;29;20127;-87
2023/01/31 09:50:19;;;;;;;3.83;1.80;;;;;;;17.16;51.02;102033.19;4867930;29;20044;-89
2023/01/31 09:52:44;;;;;;;3.92;1.70;;;;;;;17.16;51.25;102035.78;4868297;29;20049;-89
2023/01/31 09:55:21;;;;;;;3.30;1.55;;;;;;;17.17;50.99;102034.06;4852891;29;20048;-87
2023/01/31 09:58:15;;;;;;;4.43;1.70;;;;;;;17.16;51.25;102027.09;4869078;29;20060;-89
2023/01/31 10:00:58;;;;;;;3.15;1.50;;;;;;;17.17;51.08;102031.44;4868794;29;20041;-88
2023/01/31 10:03:51;;;;;;;2.58;1.38;;;;;;;17.17;51.07;102032.31;4869139;29;20033;-89
2023/01/31 10:06:24;;;;;;;4.43;1.73;;;;;;;17.18;51.27;102030.56;4868793;29;20041;-88
2023/01/31 10:09:02;;;;;;;3.30;1.50;;;;;;;17.18;50.90;102031.47;4868645;29;20040;-89
2023/01/31 10:11:42;;;;;;;3.38;1.60;;;;;;;17.18;51.14;102034.06;4868029;29;20044;-88
2023/01/31 10:14:14;;;;;;;4.43;1.77;;;;;;;17.19;51.08;102037.53;4868167;29;20037;-88
2023/01/31 10:16:54;;;;;;;2.85;1.38;;;;;;;17.19;50.93;102028.00;4873490;29;20037;-88
2023/01/31 10:19:27;;;;;;;2.50;1.40;;;;;;;17.20;51.22;102026.25;4867798;29;20073;-88
2023/01/31 10:22:08;;;;;;;2.50;1.13;;;;;;;17.21;50.95;102030.63;4867867;29;20045;-89
2023/01/31 10:25:07;;;;;;;4.07;1.70;;;;;;;17.20;51.05;102029.75;4866983;29;20064;-87
2023/01/31 10:27:35;;;;;;;3.35;1.45;;;;;;;17.20;51.20;102028.88;4866758;29;20052;-87
2023/01/31 10:30:06;;;;;;;3.95;1.48;;;;;;;17.19;51.16;102040.16;4867133;29;20045;-88
2023/01/31 10:32:44;;;;;;;4.22;1.70;;;;;;;17.18;51.17;102030.56;4867072;29;20120;-89
2023/01/31 10:35:22;;;;;;;2.88;1.40;;;;;;;17.19;51.20;102037.53;4868273;29;20033;-87
2023/01/31 10:38:02;;;;;;;3.75;1.52;;;;;;;17.21;51.25;102043.63;4867218;29;20089;-89
2023/01/31 10:40:35;;;;;;;3.90;1.60;;;;;;;17.21;51.06;102060.09;4869806;29;20092;-89
2023/01/31 10:43:15;;;;;;;2.97;1.30;;;;;;;17.20;51.18;102049.69;4869208;29;20033;-89
2023/01/31 10:45:41;;;;;;;3.13;1.30;;;;;;;17.20;51.12;102060.09;4869312;29;20036;-87
2023/01/31 10:48:06;;;;;;;2.53;1.20;;;;;;;17.20;51.08;102062.69;4838659;29;20134;-87
2023/01/31 10:50:53;;;;;;;4.93;1.55;;;;;;;17.18;51.11;102062.69;4869367;29;20040;-89
2023/01/31 10:53:24;;;;;;;3.30;1.50;;;;;;;17.19;51.15;102059.22;4870466;29;20132;-89
2023/01/31 10:56:27;;;;;;;2.95;1.20;;;;;;;17.19;51.14;102064.41;4882787;29;20063;-88
2023/01/31 10:58:53;;;;;;;2.60;1.38;;;;;;;17.20;51.13;102075.69;4885111;29;20101;-87
2023/01/31 11:01:19;;;;;;;2.47;1.10;;;;;;;17.19;51.22;102067.03;4884931;29;20045;-88
2023/01/31 11:03:49;;;;;;;3.33;1.80;;;;;;;17.19;51.08;102066.16;4869173;29;20037;-86
2023/01/31 11:06:15;;;;;;;2.47;1.20;;;;;;;17.18;50.90;102067.91;4883903;29;20021;-87
2023/01/31 11:09:00;;;;;;;3.35;1.38;;;;;;;17.18;51.11;102062.69;4869280;29;20033;-87
2023/01/31 11:11:27;;;;;;;3.83;1.60;;;;;;;17.18;50.95;102072.19;4881321;29;20085;-87
2023/01/31 11:14:15;;;;;;;3.42;1.27;;;;;;;17.18;51.04;102067.00;4881365;29;20033;-87
2023/01/31 11:16:40;;;;;;;4.22;1.60;;;;;;;17.20;50.98;102062.69;4880301;29;20057;-88
2023/01/31 11:19:28;;;;;;;3.80;1.45;;;;;;;17.22;50.97;102063.56;4844442;29;20052;-88
2023/01/31 11:21:54;;;;;;;3.22;1.33;;;;;;;17.22;50.91;102059.28;4869079;29;20159;-88
2023/01/31 11:24:22;;;;;;;3.75;1.52;;;;;;;17.23;51.12;102058.41;4855932;29;20127;-87
2023/01/31 11:26:59;;;;;;;3.58;1.38;;;;;;;17.24;51.04;102064.47;4871477;29;20057;-88
2023/01/31 11:29:28;;;;;;;5.07;1.27;;;;;;;17.22;50.97;102061.88;4871365;29;20056;-88
2023/01/31 11:31:55;;;;;;;2.63;1.40;;;;;;;17.22;51.04;102056.66;4869996;29;20120;-88
2023/01/31 11:34:29;;;;;;;3.53;1.50;;;;;;;17.26;51.12;102047.16;4886937;29;20404;-88
2023/01/31 11:37:13;;;;;;;3.40;1.23;;;;;;;17.26;50.88;102039.34;4870357;29;20070;-87
2023/01/31 11:39:38;;;;;;;3.50;1.50;;;;;;;17.28;50.86;102043.72;4872954;29;20033;-87
2023/01/31 11:42:15;;;;;;;3.45;1.52;;;;;;;17.28;50.70;102035.91;4872065;29;20136;-89
2023/01/31 11:45:03;;;;;;;3.05;1.38;;;;;;;17.28;50.94;102043.72;4870141;29;20037;-88
2023/01/31 11:47:52;;;;;;;3.20;1.40;;;;;;;17.30;50.97;102042.88;4871324;29;20039;-88
2023/01/31 11:50:42;;;;;;;4.60;1.40;;;;;;;17.28;50.99;102032.44;4869123;29;20044;-88
2023/01/31 11:53:15;;;;;;;2.92;1.17;;;;;;;17.30;50.99;102035.06;4869907;29;20045;-88
2023/01/31 11:55:42;;;;;;;3.03;1.30;;;;;;;17.30;50.66;102015.13;4869960;29;20076;-88
2023/01/31 11:58:21;;;;;;;2.97;1.40;;;;;;;17.32;50.87;102003.00;4839105;29;20044;-89
2023/01/31 12:00:58;;;;;;;3.08;1.40;;;;;;;17.33;50.94;101996.06;4869080;29;20033;-88
2023/01/31 12:03:25;;;;;;;3.42;1.50;;;;;;;17.35;50.96;101999.53;4868344;29;20043;-89
2023/01/31 12:05:59;;;;;;;3.20;1.17;;;;;;;17.36;51.09;101990.91;4853038;29;20068;-88
2023/01/31 12:08:40;;;;;;;3.00;1.40;;;;;;;17.38;50.83;101999.59;4867733;29;20041;-89
2023/01/31 12:11:18;;;;;;;2.97;1.45;;;;;;;17.39;50.91;101994.38;4867870;29;20036;-89
2023/01/31 12:13:49;;;;;;;4.55;1.45;;;;;;;17.38;50.74;101997.84;4866939;29;20037;-89
2023/01/31 12:16:20;;;;;;;2.22;1.20;;;;;;;17.40;50.53;101995.28;4866848;29;20054;-90
2023/01/31 12:19:00;;;;;;;3.08;1.30;;;;;;;17.41;50.60;101997.00;4867148;29;20037;-89
2023/01/31 12:21:26;;;;;;;3.00;1.17;;;;;;;17.40;50.88;102001.34;4868099;29;20173;-89
2023/01/31 12:24:15;;;;;;;2.67;1.20;;;;;;;17.40;50.70;101985.75;4874364;29;20045;-89
2023/01/31 12:27:00;;;;;;;2.80;1.20;;;;;;;17.41;50.61;101989.19;4867634;29;20120;-87
2023/01/31 12:29:32;;;;;;;2.63;1.08;;;;;;;17.42;50.61;101977.91;4839000;29;20041;-89
2023/01/31 12:32:19;;;;;;;2.58;1.25;;;;;;;17.43;50.59;101984.88;4866472;29;20037;-87
2023/01/31 12:35:09;;;;;;;3.35;1.42;;;;;;;17.43;50.64;101975.34;4866479;29;20036;-88
2023/01/31 12:37:47;;;;;;;5.03;1.52;;;;;;;17.44;50.51;101969.28;4866383;29;20033;-87
2023/01/31 12:40:25;;;;;;;2.13;1.23;;;;;;;17.45;50.53;101975.38;4883730;29;20400;-88
2023/01/31 12:42:57;;;;;;;3.20;1.15;;;;;;;17.44;50.78;101971.91;4868693;29;20408;-88
2023/01/31 12:45:44;;;;;;;2.63;1.10;;;;;;;17.44;50.78;101964.09;4870058;29;20122;-87
2023/01/31 12:48:37;;;;;;;3.30;1.33;;;;;;;17.46;50.72;101969.28;4870048;29;20037;-88
2023/01/31 12:51:23;;;;;;;3.08;1.40;;;;;;;17.46;50.42;101970.19;4870162;29;20044;-89
2023/01/31 12:54:10;;;;;;;3.17;1.15;;;;;;;17.47;50.79;101965.84;4870442;29;20064;-89
2023/01/31 12:56:54;;;;;;;2.33;1.10;;;;;;;17.47;50.69;101966.72;4869612;29;20037;-87
2023/01/31 12:59:23;;;;;;;;;;;;;;;17.48;50.59;101977.97;4869914;29;20095;-87
2023/01/31 13:01:57;;;;;;;2.80;1.15;;;;;;;17.48;50.76;101963.25;4868260;29;19911;-87
2023/01/31 13:04:47;;;;;;;2.25;1.20;;;;;;;17.50;50.70;101965.84;4872115;29;20085;-83
2023/01/31 13:07:26;;;;;;;3.45;1.30;;;;;;;17.53;50.78;101978.03;4870801;29;20037;-87
2023/01/31 13:09:56;;;;;;;4.10;1.48;;;;;;;17.49;50.70;101987.56;4870500;29;20033;-88
2023/01/31 13:12:26;;;;;;;3.47;1.20;;;;;;;17.48;50.66;101984.09;4870794;29;20037;-88
2023/01/31 13:15:12;;;;;;;2.53;1.10;;;;;;;17.49;50.73;101982.34;4869924;29;20115;-86
2023/01/31 13:17:39;;;;;;;2.97;1.50;;;;;;;17.48;50.69;101984.09;4870126;29;20043;-89
2023/01/31 13:20:11;;;;;;;3.13;1.30;;;;;;;17.48;50.82;101985.78;4854925;29;20089;-88